createdAt,value
2024-02-26T00:00:47.713Z,99181.47
2024-02-26T00:03:50.519Z,99181.44
2024-02-26T00:06:55.483Z,99189.50
2024-02-26T00:09:58.218Z,99182.44
2024-02-26T00:13:00.640Z,99178.91
2024-02-26T00:16:04.801Z,99172.66
2024-02-26T00:19:07.357Z,99159.31
2024-02-26T00:22:10.167Z,99158.53
2024-02-26T00:25:13.825Z,99154.25
2024-02-26T00:28:16.744Z,99154.25
2024-02-26T00:31:19.147Z,99161.41
2024-02-26T00:34:21.991Z,99156.06
2024-02-26T00:37:24.448Z,99149.84
2024-02-26T00:40:27.243Z,99140.13
2024-02-26T00:43:29.805Z,99137.50
2024-02-26T00:46:32.500Z,99137.44
2024-02-26T00:49:34.940Z,99142.88
2024-02-26T00:52:37.606Z,99136.66
2024-02-26T00:55:40.044Z,99099.63
2024-02-26T00:58:42.703Z,99136.75
2024-02-26T01:01:45.038Z,99143.84
2024-02-26T01:04:47.815Z,99143.00
2024-02-26T01:07:50.336Z,99130.59
2024-02-26T01:10:53.097Z,99140.41
2024-02-26T01:13:57.782Z,99095.34
2024-02-26T01:17:00.824Z,99121.75
2024-02-26T01:20:03.588Z,99128.84
2024-02-26T01:23:06.369Z,99126.19
2024-02-26T01:26:08.767Z,99120.81
2024-02-26T01:29:11.511Z,99112.75
2024-02-26T01:32:14.015Z,99114.44
2024-02-26T01:35:16.896Z,99112.59
2024-02-26T01:38:19.283Z,99104.56
2024-02-26T01:41:21.975Z,99101.03
2024-02-26T01:44:24.339Z,99101.91
2024-02-26T01:47:28.244Z,99093.06
2024-02-26T01:50:30.619Z,99099.25
2024-02-26T01:53:33.329Z,99090.44
2024-02-26T01:56:36.570Z,99099.28
2024-02-26T01:59:41.207Z,99102.00
2024-02-26T02:02:45.801Z,99097.59
2024-02-26T02:05:48.544Z,99099.31
2024-02-26T02:08:50.949Z,99101.19
2024-02-26T02:11:53.888Z,99099.44
2024-02-26T02:14:56.453Z,99092.31
2024-02-26T02:17:59.214Z,99090.59
2024-02-26T02:21:02.359Z,99078.19
2024-02-26T02:24:05.443Z,99085.31
2024-02-26T02:27:07.935Z,99080.03
2024-02-26T02:30:12.129Z,99075.59
2024-02-26T02:33:16.427Z,99081.81
2024-02-26T02:36:19.288Z,99091.50
2024-02-26T02:39:22.521Z,99083.53
2024-02-26T02:42:25.348Z,99083.69
2024-02-26T02:45:27.781Z,99085.56
2024-02-26T02:48:30.723Z,99076.63
2024-02-26T02:51:33.202Z,99075.81
2024-02-26T02:54:36.857Z,99074.09
2024-02-26T02:57:42.348Z,99074.16
2024-02-26T03:00:45.498Z,99072.34
2024-02-26T03:03:47.938Z,99059.91
2024-02-26T03:06:50.725Z,99066.19
2024-02-26T03:09:53.203Z,99070.59
2024-02-26T03:12:57.307Z,99060.00
2024-02-26T03:15:59.718Z,99068.84
2024-02-26T03:19:02.853Z,99075.09
2024-02-26T03:22:05.469Z,99073.31
2024-02-26T03:25:08.758Z,99074.22
2024-02-26T03:28:11.193Z,99077.84
2024-02-26T03:31:13.953Z,99078.75
2024-02-26T03:34:16.535Z,99072.53
2024-02-26T03:37:19.296Z,99075.97
2024-02-26T03:40:21.722Z,99076.13
2024-02-26T03:43:27.155Z,99068.19
2024-02-26T03:46:29.650Z,99074.44
2024-02-26T03:49:32.426Z,99062.84
2024-02-26T03:52:35.124Z,99069.91
2024-02-26T03:55:38.142Z,99055.59
2024-02-26T03:58:40.809Z,99058.34
2024-02-26T04:01:48.299Z,99039.66
2024-02-26T04:04:51.056Z,99044.03
2024-02-26T04:07:53.571Z,99045.91
2024-02-26T04:10:56.284Z,99036.84
2024-02-26T04:13:58.743Z,99030.63
2024-02-26T04:17:01.465Z,99034.09
2024-02-26T04:20:04.954Z,99026.09
2024-02-26T04:23:07.657Z,99022.44
2024-02-26T04:26:10.021Z,99023.31
2024-02-26T04:29:12.881Z,99025.00
2024-02-26T04:32:15.246Z,99023.22
2024-02-26T04:35:18.337Z,99028.53
2024-02-26T04:38:20.752Z,99033.06
2024-02-26T04:41:23.399Z,99040.09
2024-02-26T04:44:25.843Z,99040.09
2024-02-26T04:47:28.529Z,99041.06
2024-02-26T04:50:30.908Z,99047.38
2024-02-26T04:53:33.546Z,99050.09
2024-02-26T04:56:35.895Z,99045.69
2024-02-26T04:59:38.754Z,99044.81
2024-02-26T05:02:41.221Z,99043.03
2024-02-26T05:05:44.672Z,99052.84
2024-02-26T05:08:47.295Z,99047.50
2024-02-26T05:11:50.004Z,99056.41
2024-02-26T05:14:52.398Z,99051.91
2024-02-26T05:17:55.167Z,99045.69
2024-02-26T05:20:57.637Z,99044.72
2024-02-26T05:24:00.416Z,99044.78
2024-02-26T05:27:03.126Z,99047.34
2024-02-26T05:30:06.669Z,99047.34
2024-02-26T05:33:13.785Z,99045.56
2024-02-26T05:36:23.347Z,99056.28
2024-02-26T05:39:25.964Z,99049.13
2024-02-26T05:42:28.715Z,99057.09
2024-02-26T05:45:31.275Z,99052.66
2024-02-26T05:48:34.078Z,99052.31
2024-02-26T05:51:36.906Z,99059.34
2024-02-26T05:54:39.542Z,99061.13
2024-02-26T05:57:42.136Z,99065.56
2024-02-26T06:00:44.905Z,99071.81
2024-02-26T06:03:47.687Z,99079.00
2024-02-26T06:06:50.816Z,99076.31
2024-02-26T06:09:53.732Z,99079.84
2024-02-26T06:12:56.133Z,99077.22
2024-02-26T06:15:58.821Z,99082.47
2024-02-26T06:19:01.715Z,99086.87
2024-02-26T06:22:04.676Z,99096.66
2024-02-26T06:25:07.350Z,99096.59
2024-02-26T06:28:10.063Z,99105.50
2024-02-26T06:31:12.516Z,99109.06
2024-02-26T06:34:15.272Z,99116.13
2024-02-26T06:37:17.687Z,99116.94
2024-02-26T06:40:20.802Z,99126.69
2024-02-26T06:43:23.167Z,99112.38
2024-02-26T06:46:27.071Z,99119.47
2024-02-26T06:49:30.089Z,99123.72
2024-02-26T06:52:32.915Z,99113.81
2024-02-26T06:55:35.673Z,99110.97
2024-02-26T06:58:38.416Z,99125.63
2024-02-26T07:01:44.326Z,99115.00
2024-02-26T07:04:47.501Z,99090.62
2024-02-26T07:07:50.139Z,99098.41
2024-02-26T07:10:53.254Z,99101.69
2024-02-26T07:13:56.210Z,99101.44
2024-02-26T07:16:59.572Z,99100.63
2024-02-26T07:20:03.451Z,99102.75
2024-02-26T07:23:07.890Z,99103.91
2024-02-26T07:26:12.781Z,99104.94
2024-02-26T07:29:15.427Z,99098.69
2024-02-26T07:32:18.377Z,99103.81
2024-02-26T07:35:20.983Z,99099.56
2024-02-26T07:38:32.204Z,99103.44
2024-02-26T07:41:48.253Z,99095.41
2024-02-26T07:44:50.934Z,99102.88
2024-02-26T07:47:53.758Z,99091.78
2024-02-26T07:50:56.306Z,99100.34
2024-02-26T07:53:59.040Z,99094.69
2024-02-26T07:57:02.485Z,99085.87
2024-02-26T08:00:08.600Z,99083.69
2024-02-26T08:03:11.715Z,99087.41
2024-02-26T08:06:14.466Z,99091.94
2024-02-26T08:09:17.318Z,99082.50
2024-02-26T08:12:19.944Z,99094.94
2024-02-26T08:15:22.686Z,99045.69
2024-02-26T08:18:25.459Z,99081.47
2024-02-26T08:21:28.591Z,99082.69
2024-02-26T08:24:31.418Z,99086.34
2024-02-26T08:27:34.577Z,99094.50
2024-02-26T08:30:37.085Z,99086.50
2024-02-26T08:33:40.060Z,99085.13
2024-02-26T08:36:44.368Z,99091.00
2024-02-26T08:39:47.033Z,99089.69
2024-02-26T08:42:49.816Z,99088.66
2024-02-26T08:45:52.472Z,99087.78
2024-02-26T08:48:55.117Z,99097.31
2024-02-26T08:51:57.998Z,99086.59
2024-02-26T08:55:00.587Z,99092.78
2024-02-26T08:58:03.346Z,99093.37
2024-02-26T09:01:05.866Z,99102.91
2024-02-26T09:04:09.033Z,99089.34
2024-02-26T09:07:11.496Z,99091.88
2024-02-26T09:10:14.300Z,99095.03
2024-02-26T09:13:16.759Z,99091.25
2024-02-26T09:16:19.428Z,99083.34
2024-02-26T09:19:21.941Z,99098.94
2024-02-26T09:22:24.684Z,99085.03
2024-02-26T09:25:27.135Z,99089.50
2024-02-26T09:28:32.790Z,99087.69
2024-02-26T09:31:35.335Z,99081.50
2024-02-26T09:34:38.495Z,99086.37
2024-02-26T09:37:41.297Z,99093.41
2024-02-26T09:40:44.091Z,99069.41
2024-02-26T09:43:49.708Z,99089.53
2024-02-26T09:46:53.538Z,99094.28
2024-02-26T09:49:57.517Z,99086.34
2024-02-26T09:53:01.321Z,99063.66
2024-02-26T09:56:04.376Z,99084.78
2024-02-26T09:59:11.551Z,99098.53
2024-02-26T10:02:15.166Z,99092.03
2024-02-26T10:05:21.530Z,99094.94
2024-02-26T10:08:24.173Z,99099.00
2024-02-26T10:11:26.979Z,99106.78
2024-02-26T10:14:29.339Z,99098.53
2024-02-26T10:17:32.732Z,99094.66
2024-02-26T10:20:35.136Z,99096.88
2024-02-26T10:23:37.859Z,99100.81
2024-02-26T10:26:47.385Z,99113.53
2024-02-26T10:29:52.915Z,99096.16
2024-02-26T10:32:55.713Z,99093.41
2024-02-26T10:35:58.708Z,99091.63
2024-02-26T10:39:03.506Z,99089.06
2024-02-26T10:42:10.947Z,99096.94
2024-02-26T10:45:13.596Z,99081.69
2024-02-26T10:48:16.606Z,99097.78
2024-02-26T10:51:30.526Z,99071.09
2024-02-26T10:54:34.221Z,99089.62
2024-02-26T10:57:41.520Z,99075.31
2024-02-26T11:00:45.096Z,99075.00
2024-02-26T11:03:50.176Z,99070.31
2024-02-26T11:06:56.910Z,99068.31
2024-02-26T11:10:04.476Z,99059.69
2024-02-26T11:13:07.585Z,99048.53
2024-02-26T11:16:10.432Z,99042.00
2024-02-26T11:19:15.193Z,99058.19
2024-02-26T11:22:21.578Z,99050.28
2024-02-26T11:25:27.981Z,99043.03
2024-02-26T11:28:31.363Z,99041.50
2024-02-26T11:31:37.114Z,99034.81
2024-02-26T11:34:40.661Z,99035.47
2024-02-26T11:37:52.758Z,99044.03
2024-02-26T11:40:55.390Z,99028.38
2024-02-26T11:44:06.701Z,99029.34
2024-02-26T11:47:19.885Z,99038.34
2024-02-26T11:50:40.654Z,99036.91
2024-02-26T11:53:49.883Z,99033.66
2024-02-26T11:56:53.501Z,99033.81
2024-02-26T12:00:08.461Z,99040.25
2024-02-26T12:03:13.409Z,99034.31
2024-02-26T12:06:15.892Z,99025.25
2024-02-26T12:09:37.406Z,99030.38
2024-02-26T12:12:40.649Z,99025.00
2024-02-26T12:15:56.565Z,99015.22
2024-02-26T12:19:00.447Z,99005.97
2024-02-26T12:22:03.729Z,99008.13
2024-02-26T12:25:06.906Z,99007.41
2024-02-26T12:28:09.605Z,99006.91
2024-02-26T12:31:11.999Z,99005.69
2024-02-26T12:34:15.155Z,99014.62
2024-02-26T12:37:17.915Z,99011.13
2024-02-26T12:40:21.009Z,99015.88
2024-02-26T12:43:23.691Z,99016.66
2024-02-26T12:46:26.562Z,99014.97
2024-02-26T12:49:29.040Z,99019.44
2024-02-26T12:52:36.518Z,99012.81
2024-02-26T12:55:41.236Z,99006.44
2024-02-26T12:58:44.568Z,99008.84
2024-02-26T13:01:47.021Z,99015.38
2024-02-26T13:04:50.267Z,99018.00
2024-02-26T13:07:54.216Z,99021.72
2024-02-26T13:10:57.120Z,99016.59
2024-02-26T13:13:59.901Z,99010.84
2024-02-26T13:17:03.375Z,99014.00
2024-02-26T13:20:07.024Z,99009.59
2024-02-26T13:23:13.528Z,99008.34
2024-02-26T13:26:16.045Z,99009.91
2024-02-26T13:29:21.733Z,99011.59
2024-02-26T13:32:24.277Z,99012.47
2024-02-26T13:35:27.723Z,99011.06
2024-02-26T13:38:30.436Z,99004.63
2024-02-26T13:41:33.517Z,99010.19
2024-02-26T13:44:40.600Z,99015.75
2024-02-26T13:47:43.508Z,99021.62
2024-02-26T13:50:47.186Z,99014.78
2024-02-26T13:53:50.360Z,99026.72
2024-02-26T13:56:53.652Z,99025.16
2024-02-26T13:59:56.700Z,99030.00
2024-02-26T14:02:59.955Z,99029.25
2024-02-26T14:06:03.057Z,99035.56
2024-02-26T14:09:06.098Z,99034.81
2024-02-26T14:12:09.335Z,99036.72
2024-02-26T14:15:11.857Z,99044.97
2024-02-26T14:18:14.732Z,98996.72
2024-02-26T14:21:17.311Z,99037.38
2024-02-26T14:24:24.441Z,99043.88
2024-02-26T14:27:27.685Z,99053.97
2024-02-26T14:30:30.509Z,99055.00
2024-02-26T14:33:33.048Z,99060.69
2024-02-26T14:36:35.967Z,99062.72
2024-02-26T14:39:38.613Z,99068.47
2024-02-26T14:42:42.060Z,99059.91
2024-02-26T14:45:44.646Z,99070.28
2024-02-26T14:48:47.487Z,99069.59
2024-02-26T14:51:49.941Z,99071.50
2024-02-26T14:54:52.595Z,99059.00
2024-02-26T14:57:55.089Z,99061.13
2024-02-26T15:00:58.143Z,99056.53
2024-02-26T15:04:01.851Z,99063.13
2024-02-26T15:07:05.357Z,99061.44
2024-02-26T15:10:08.519Z,99050.91
2024-02-26T15:13:11.309Z,99058.13
2024-02-26T15:16:21.869Z,99065.44
2024-02-26T15:19:24.774Z,99066.44
2024-02-26T15:22:27.859Z,99068.31
2024-02-26T15:25:31.002Z,99072.84
2024-02-26T15:28:33.408Z,99065.69
2024-02-26T15:31:37.290Z,99074.06
2024-02-26T15:34:39.969Z,99079.78
2024-02-26T15:37:43.164Z,99081.03
2024-02-26T15:40:47.866Z,99083.31
2024-02-26T15:43:51.660Z,99088.09
2024-02-26T15:46:54.568Z,99093.22
2024-02-26T15:49:58.608Z,99097.28
2024-02-26T15:53:01.528Z,99095.41
2024-02-26T15:56:04.396Z,99106.44
2024-02-26T15:59:06.840Z,99118.47
2024-02-26T16:02:09.861Z,99120.91
2024-02-26T16:05:13.894Z,99122.44
2024-02-26T16:08:21.902Z,99131.84
2024-02-26T16:11:24.836Z,99135.00
2024-02-26T16:14:47.757Z,99129.22
2024-02-26T16:17:53.181Z,99142.31
2024-02-26T16:20:55.880Z,99142.50
2024-02-26T16:24:00.101Z,99145.72
2024-02-26T16:27:02.613Z,99152.66
2024-02-26T16:30:06.125Z,99138.31
2024-02-26T16:33:08.754Z,99148.34
2024-02-26T16:36:13.571Z,99150.59
2024-02-26T16:39:16.122Z,99160.00
2024-02-26T16:42:19.772Z,99160.06
2024-02-26T16:45:22.512Z,99150.00
2024-02-26T16:48:25.402Z,99163.97
2024-02-26T16:51:27.957Z,99171.53
2024-02-26T16:54:31.073Z,99178.59
2024-02-26T16:57:33.841Z,99169.87
2024-02-26T17:00:36.850Z,99136.88
2024-02-26T17:03:39.963Z,99180.34
2024-02-26T17:06:43.005Z,99196.84
2024-02-26T17:09:45.549Z,99197.72
2024-02-26T17:12:48.234Z,99200.56
2024-02-26T17:15:50.806Z,99208.66
2024-02-26T17:18:54.162Z,99219.75
2024-02-26T17:21:56.797Z,99219.81
2024-02-26T17:24:59.896Z,99222.47
2024-02-26T17:28:03.010Z,99223.22
2024-02-26T17:31:05.681Z,99223.84
2024-02-26T17:34:10.106Z,99229.47
2024-02-26T17:37:12.865Z,99228.34
2024-02-26T17:40:15.450Z,99229.13
2024-02-26T17:43:18.802Z,99230.41
2024-02-26T17:46:21.610Z,99246.75
2024-02-26T17:49:27.174Z,99235.38
2024-02-26T17:52:35.191Z,99245.56
2024-02-26T17:55:37.890Z,99244.59
2024-02-26T17:58:42.988Z,99254.50
2024-02-26T18:01:45.756Z,99254.50
2024-02-26T18:04:48.528Z,99259.28
2024-02-26T18:07:52.266Z,99257.53
2024-02-26T18:10:54.924Z,99264.31
2024-02-26T18:13:58.449Z,99272.00
2024-02-26T18:17:01.257Z,99269.69
2024-02-26T18:20:05.643Z,99278.94
2024-02-26T18:23:08.348Z,99274.75
2024-02-26T18:26:11.525Z,99275.63
2024-02-26T18:29:14.169Z,99279.81
2024-02-26T18:32:17.184Z,99280.88
2024-02-26T18:35:20.430Z,99281.81
2024-02-26T18:38:22.979Z,99273.81
2024-02-26T18:41:26.097Z,99281.62
2024-02-26T18:44:28.683Z,99272.66
2024-02-26T18:47:31.984Z,99284.59
2024-02-26T18:50:34.465Z,99288.34
2024-02-26T18:53:37.370Z,99295.44
2024-02-26T18:56:39.800Z,99297.38
2024-02-26T18:59:44.532Z,99293.69
2024-02-26T19:02:47.391Z,99306.44
2024-02-26T19:05:50.263Z,99300.44
2024-02-26T19:08:53.290Z,99309.56
2024-02-26T19:11:57.786Z,99305.94
2024-02-26T19:15:00.583Z,99307.06
2024-02-26T19:18:05.612Z,99313.38
2024-02-26T19:21:08.550Z,99321.47
2024-02-26T19:24:11.377Z,99322.28
2024-02-26T19:27:15.037Z,99327.38
2024-02-26T19:30:18.000Z,99329.28
2024-02-26T19:33:22.297Z,99327.47
2024-02-26T19:36:25.198Z,99327.66
2024-02-26T19:39:29.045Z,99328.81
2024-02-26T19:42:31.980Z,99334.25
2024-02-26T19:45:34.606Z,99333.59
2024-02-26T19:48:39.837Z,99338.16
2024-02-26T19:51:43.602Z,99347.16
2024-02-26T19:54:46.788Z,99348.19
2024-02-26T19:57:49.574Z,99352.81
2024-02-26T20:00:52.590Z,99352.81
2024-02-26T20:03:55.343Z,99357.34
2024-02-26T20:06:57.874Z,99364.22
2024-02-26T20:10:00.749Z,99366.09
2024-02-26T20:13:03.935Z,99366.84
2024-02-26T20:16:07.639Z,99367.47
2024-02-26T20:19:12.550Z,99366.69
2024-02-26T20:22:15.442Z,99364.94
2024-02-26T20:25:17.907Z,99371.94
2024-02-26T20:28:20.609Z,99380.16
2024-02-26T20:31:22.977Z,99381.72
2024-02-26T20:34:25.990Z,99374.63
2024-02-26T20:37:29.612Z,99377.31
2024-02-26T20:40:33.118Z,99385.59
2024-02-26T20:43:35.672Z,99370.56
2024-02-26T20:46:44.523Z,99387.56
2024-02-26T20:49:47.495Z,99394.88
2024-02-26T20:52:51.754Z,99396.78
2024-02-26T20:55:54.150Z,99405.75
2024-02-26T20:58:56.845Z,99411.22
2024-02-26T21:01:59.313Z,99412.91
2024-02-26T21:05:02.178Z,99419.09
2024-02-26T21:08:09.234Z,99419.97
2024-02-26T21:11:16.309Z,99412.75
2024-02-26T21:14:18.867Z,99409.03
2024-02-26T21:17:21.565Z,99409.78
2024-02-26T21:20:26.124Z,99398.87
2024-02-26T21:23:28.862Z,99404.97
2024-02-26T21:26:31.251Z,99418.03
2024-02-26T21:29:33.984Z,99421.50
2024-02-26T21:32:36.501Z,99413.22
2024-02-26T21:35:39.457Z,99423.03
2024-02-26T21:38:49.758Z,99428.41
2024-02-26T21:41:53.423Z,99434.66
2024-02-26T21:44:56.037Z,99433.00
2024-02-26T21:47:58.930Z,99431.41
2024-02-26T21:51:05.754Z,99431.63
2024-02-26T21:54:08.455Z,99439.91
2024-02-26T21:57:10.931Z,99429.19
2024-02-26T22:00:14.031Z,99429.22
2024-02-26T22:03:16.780Z,99425.66
2024-02-26T22:06:19.314Z,99426.69
2024-02-26T22:09:22.037Z,99428.34
2024-02-26T22:12:24.577Z,99437.16
2024-02-26T22:15:27.403Z,99441.88
2024-02-26T22:18:29.992Z,99435.69
2024-02-26T22:21:34.127Z,99446.28
2024-02-26T22:24:37.711Z,99444.75
2024-02-26T22:27:40.656Z,99452.66
2024-02-26T22:30:43.153Z,99446.41
2024-02-26T22:33:46.718Z,99442.97
2024-02-26T22:36:50.499Z,99454.63
2024-02-26T22:39:53.342Z,99456.44
2024-02-26T22:42:57.071Z,99453.84
2024-02-26T22:46:00.102Z,99456.53
2024-02-26T22:49:02.580Z,99460.00
2024-02-26T22:52:05.972Z,99462.66
2024-02-26T22:55:08.706Z,99451.91
2024-02-26T22:58:11.364Z,99457.09
2024-02-26T23:01:13.820Z,99454.47
2024-02-26T23:04:16.548Z,99455.62
2024-02-26T23:07:19.102Z,99452.06
2024-02-26T23:10:22.749Z,99417.56
2024-02-26T23:13:25.168Z,99447.56
2024-02-26T23:16:29.006Z,99450.22
2024-02-26T23:19:34.646Z,99450.25
2024-02-26T23:22:45.316Z,99452.00
2024-02-26T23:25:47.768Z,99451.06
2024-02-26T23:28:50.776Z,99456.28
2024-02-26T23:31:53.189Z,99453.50
2024-02-26T23:34:56.059Z,99455.34
2024-02-26T23:37:58.557Z,99452.63
2024-02-26T23:41:02.081Z,99456.25
2024-02-26T23:44:04.758Z,99477.00
2024-02-26T23:47:07.733Z,99468.47
2024-02-26T23:50:10.420Z,99472.28
2024-02-26T23:53:13.141Z,99479.66
2024-02-26T23:56:15.550Z,99478.84
2024-02-26T23:59:20.510Z,99487.97
